Time;durP1;ratioP1;P1;durP2;ratioP2;P2;SDS_P1;SDS_P2;PMS_P1;PMS_P2;Temp;Humidity;BMP_temperature;BMP_pressure;BME280_temperature;BME280_humidity;BME280_pressure;Samples;Min_cycle;Max_cycle;Signal;HPM_P1;HPM_P2
2021/10/22 00:00:26;;;;;;;;;;;;;;;9.39;nan;98817.63;5100659;28;20371;-82
2021/10/22 00:02:53;;;;;;;;;;;;;;;9.50;nan;98823.78;5093076;28;19934;-82
2021/10/22 00:05:20;;;;;;;;;;;;;;;9.44;nan;98797.59;5077321;28;19924;-82
2021/10/22 00:07:48;;;;;;;;;;;;;;;9.41;nan;98790.06;5088340;28;20303;-82
2021/10/22 00:10:15;;;;;;;;;;;;;;;9.66;nan;98804.44;5092607;28;19949;-82
2021/10/22 00:12:43;;;;;;;;;;;;;;;9.42;nan;98783.31;5062104;28;19939;-82
2021/10/22 00:15:11;;;;;;;;;;;;;;;9.52;nan;98777.56;5078499;28;19925;-82
2021/10/22 00:17:38;;;;;;;;;;;;;;;9.63;nan;98782.97;5072526;28;19938;-82
2021/10/22 00:20:07;;;;;;;;;;;;;;;9.30;nan;98781.09;5076305;28;19950;-82
2021/10/22 00:22:35;;;;;;;;;;;;;;;9.59;nan;98779.44;5069205;28;19954;-82
2021/10/22 00:25:03;;;;;;;;;;;;;;;9.52;nan;98799.88;5105777;28;19977;-82
2021/10/22 00:27:30;;;;;;;;;;;;;;;9.50;nan;98799.50;5081847;28;19924;-82
2021/10/22 00:29:58;;;;;;;;;;;;;;;9.65;nan;98780.53;5078171;28;19924;-83
2021/10/22 00:32:27;;;;;;;;;;;;;;;9.70;nan;98796.78;5062701;28;20452;-82
2021/10/22 00:34:54;;;;;;;;;;;;;;;9.94;nan;98790.78;5091861;28;19928;-82
2021/10/22 00:37:22;;;;;;;;;;;;;;;9.82;nan;98785.00;5069556;28;19925;-82
2021/10/22 00:39:49;;;;;;;;;;;;;;;9.85;nan;98786.94;5085397;28;19931;-82
2021/10/22 00:42:17;;;;;;;;;;;;;;;10.35;nan;98782.06;5071121;28;19931;-82
2021/10/22 00:44:47;;;;;;;;;;;;;;;10.33;nan;98778.94;5061151;28;19928;-82
2021/10/22 00:47:14;;;;;;;;;;;;;;;10.13;nan;98778.13;5107250;28;19931;-82
2021/10/22 00:49:41;;;;;;;;;;;;;;;10.30;nan;98774.19;5081397;28;19931;-82
2021/10/22 00:52:09;;;;;;;;;;;;;;;10.34;nan;98763.75;5065899;28;19928;-82
2021/10/22 00:54:37;;;;;;;;;;;;;;;10.17;nan;98764.88;5061271;28;19924;-82
2021/10/22 00:57:05;;;;;;;;;;;;;;;10.22;nan;98770.72;5092541;28;19952;-82
2021/10/22 00:59:32;;;;;;;;;;;;;;;10.35;nan;98768.91;5052144;28;19977;-82
2021/10/22 01:02:00;;;;;;;;;;;;;;;10.38;nan;98748.50;5077400;28;20376;-82
2021/10/22 01:04:28;;;;;;;;;;;;;;;10.58;nan;98748.47;5082352;28;19928;-82
2021/10/22 01:06:55;;;;;;;;;;;;;;;10.59;nan;98750.03;5111740;28;19923;-82
2021/10/22 01:09:23;;;;;;;;;;;;;;;10.20;nan;98753.63;5090880;28;19931;-82
2021/10/22 01:11:50;;;;;;;;;;;;;;;10.04;nan;98744.34;5101432;28;19924;-82
2021/10/22 01:14:18;;;;;;;;;;;;;;;10.08;nan;98743.09;5068206;28;19947;-82
2021/10/22 01:16:46;;;;;;;;;;;;;;;9.89;nan;98751.41;5049883;28;20449;-82
2021/10/22 01:19:17;;;;;;;;;;;;;;;10.15;nan;98739.38;5108591;28;19946;-82
2021/10/22 01:25:27;;;;;;;;;;;;;;;10.02;nan;98728.03;5076756;28;19920;-82
2021/10/22 01:27:55;;;;;;;;;;;;;;;9.89;nan;98729.09;5072335;28;19927;-82
2021/10/22 01:30:24;;;;;;;;;;;;;;;9.78;nan;98722.91;5095168;28;19928;-82
2021/10/22 01:33:03;;;;;;;;;;;;;;;9.84;nan;98721.22;5058796;28;20390;-82
2021/10/22 01:35:31;;;;;;;;;;;;;;;9.90;nan;98722.28;5111292;28;19928;-82
2021/10/22 01:37:58;;;;;;;;;;;;;;;9.98;nan;98715.38;5093660;28;19924;-82
2021/10/22 01:40:27;;;;;;;;;;;;;;;9.94;nan;98697.88;5063196;28;19924;-82
2021/10/22 01:42:55;;;;;;;;;;;;;;;10.03;nan;98723.22;5057145;28;19974;-82
2021/10/22 01:45:23;;;;;;;;;;;;;;;9.88;nan;98710.75;5073575;28;19924;-82
2021/10/22 01:47:50;;;;;;;;;;;;;;;10.19;nan;98709.41;5114889;28;19968;-82
2021/10/22 01:50:17;;;;;;;;;;;;;;;10.19;nan;98709.41;5078878;28;19924;-82
2021/10/22 01:52:46;;;;;;;;;;;;;;;10.29;nan;98719.56;5070154;28;20383;-82
2021/10/22 01:55:13;;;;;;;;;;;;;;;10.25;nan;98724.44;5052074;28;19939;-82
2021/10/22 01:57:40;;;;;;;;;;;;;;;10.32;nan;98721.50;5080395;28;20637;-83
2021/10/22 02:00:08;;;;;;;;;;;;;;;10.61;nan;98725.28;5105335;28;19930;-83
2021/10/22 02:02:44;;;;;;;;;;;;;;;10.42;nan;98724.06;5045917;28;19928;-82
2021/10/22 02:05:11;;;;;;;;;;;;;;;10.47;nan;98731.94;5086304;28;19923;-82
2021/10/22 02:10:56;;;;;;;;;;;;;;;10.70;nan;98733.84;5066859;28;19951;-82
2021/10/22 02:13:23;;;;;;;;;;;;;;;10.60;nan;98737.69;5080049;28;19924;-83
2021/10/22 02:15:50;;;;;;;;;;;;;;;10.73;nan;98703.03;5096437;28;19925;-82
2021/10/22 02:18:18;;;;;;;;;;;;;;;10.87;nan;98732.69;5093458;28;19924;-82
2021/10/22 02:20:45;;;;;;;;;;;;;;;11.16;nan;98722.44;5075725;28;19928;-82
2021/10/22 02:23:13;;;;;;;;;;;;;;;10.85;nan;98735.13;5076278;28;19973;-83
2021/10/22 02:26:06;;;;;;;;;;;;;;;10.56;nan;98734.94;5083470;28;19924;-83
2021/10/22 02:28:35;;;;;;;;;;;;;;;10.51;nan;98738.22;5085854;28;19928;-82
2021/10/22 02:31:02;;;;;;;;;;;;;;;10.29;nan;98739.91;5073982;28;19924;-82
2021/10/22 02:33:30;;;;;;;;;;;;;;;10.33;nan;98734.25;5078975;28;19977;-83
2021/10/22 02:35:57;;;;;;;;;;;;;;;10.18;nan;98718.97;5075854;28;19924;-83
2021/10/22 02:38:24;;;;;;;;;;;;;;;9.95;nan;98724.59;5093790;28;19930;-82
2021/10/22 02:40:52;;;;;;;;;;;;;;;10.01;nan;98728.47;5084261;28;19977;-83
2021/10/22 02:43:19;;;;;;;;;;;;;;;10.22;nan;98733.66;5045158;28;19928;-82
2021/10/22 02:45:47;;;;;;;;;;;;;;;9.72;nan;98714.25;5067839;28;19930;-81
2021/10/22 02:48:14;;;;;;;;;;;;;;;10.02;nan;98716.88;5085716;28;19928;-82
2021/10/22 02:50:41;;;;;;;;;;;;;;;9.78;nan;98734.06;5075369;28;19924;-83
2021/10/22 02:53:08;;;;;;;;;;;;;;;9.53;nan;98717.75;5093572;28;19928;-82
2021/10/22 02:55:36;;;;;;;;;;;;;;;9.73;nan;98726.97;5058630;28;19924;-83
2021/10/22 02:58:03;;;;;;;;;;;;;;;9.89;nan;98713.13;5093567;28;20578;-83
2021/10/22 03:00:30;;;;;;;;;;;;;;;9.94;nan;98709.84;5075060;28;19924;-82
2021/10/22 03:02:58;;;;;;;;;;;;;;;9.80;nan;98703.75;5084499;28;19925;-83
2021/10/22 03:05:25;;;;;;;;;;;;;;;9.79;nan;98713.31;5074337;28;19934;-82
2021/10/22 03:07:54;;;;;;;;;;;;;;;9.94;nan;98712.63;5073344;28;20018;-83
2021/10/22 03:10:21;;;;;;;;;;;;;;;9.97;nan;98713.78;5061785;28;20553;-83
2021/10/22 03:12:48;;;;;;;;;;;;;;;10.08;nan;98709.59;5075587;28;19968;-83
2021/10/22 03:15:16;;;;;;;;;;;;;;;10.22;nan;98689.75;5072308;28;20299;-83
2021/10/22 03:17:44;;;;;;;;;;;;;;;9.90;nan;98670.06;5079021;28;19924;-83
2021/10/22 03:20:12;;;;;;;;;;;;;;;9.83;nan;98689.72;5073771;28;19931;-83
2021/10/22 03:22:39;;;;;;;;;;;;;;;9.91;nan;98701.53;5058784;28;19988;-83
2021/10/22 03:25:06;;;;;;;;;;;;;;;9.78;nan;98706.16;5073055;28;19925;-82
2021/10/22 03:27:34;;;;;;;;;;;;;;;10.06;nan;98680.50;5044479;28;19973;-82
2021/10/22 03:30:02;;;;;;;;;;;;;;;9.93;nan;98685.94;5083104;28;19924;-83
2021/10/22 03:32:32;;;;;;;;;;;;;;;9.87;nan;98689.66;5087130;28;19924;-82
2021/10/22 03:35:00;;;;;;;;;;;;;;;9.94;nan;98681.13;5061394;28;19924;-83
2021/10/22 03:37:28;;;;;;;;;;;;;;;9.89;nan;98701.19;5081248;28;19928;-83
2021/10/22 03:39:55;;;;;;;;;;;;;;;9.95;nan;98660.41;5070418;28;19925;-83
2021/10/22 03:42:22;;;;;;;;;;;;;;;9.95;nan;98675.13;5069532;28;20272;-82
2021/10/22 03:44:52;;;;;;;;;;;;;;;9.82;nan;98663.03;5048311;28;19924;-82
2021/10/22 03:47:22;;;;;;;;;;;;;;;9.91;nan;98693.16;5079134;28;20320;-82
2021/10/22 03:49:50;;;;;;;;;;;;;;;10.10;nan;98690.41;5046427;28;19932;-82
2021/10/22 03:52:17;;;;;;;;;;;;;;;9.88;nan;98700.41;5086945;28;19924;-82
2021/10/22 03:54:44;;;;;;;;;;;;;;;9.92;nan;98705.91;5090406;28;19930;-82
2021/10/22 03:57:12;;;;;;;;;;;;;;;10.02;nan;98727.25;5058469;28;19931;-82
2021/10/22 03:59:40;;;;;;;;;;;;;;;10.23;nan;98735.22;5078130;28;20291;-83
2021/10/22 04:02:07;;;;;;;;;;;;;;;10.04;nan;98744.34;5110891;28;20287;-82
2021/10/22 04:04:35;;;;;;;;;;;;;;;9.91;nan;98754.56;5067778;28;19931;-82
2021/10/22 04:07:02;;;;;;;;;;;;;;;10.17;nan;98739.75;5062039;28;19985;-82
2021/10/22 04:09:31;;;;;;;;;;;;;;;9.99;nan;98756.81;5107409;28;19924;-82
2021/10/22 04:11:59;;;;;;;;;;;;;;;10.13;nan;98750.19;5074211;28;19924;-82
2021/10/22 04:14:26;;;;;;;;;;;;;;;9.99;nan;98751.22;5074996;28;20424;-82
2021/10/22 04:16:56;;;;;;;;;;;;;;;9.90;nan;98752.97;5056160;28;19930;-82
2021/10/22 04:19:26;;;;;;;;;;;;;;;9.80;nan;98760.31;5089515;28;20410;-83
2021/10/22 04:21:54;;;;;;;;;;;;;;;9.84;nan;98743.53;5089848;28;19924;-83
2021/10/22 04:24:23;;;;;;;;;;;;;;;9.54;nan;98757.63;5076755;28;19977;-82
2021/10/22 04:26:50;;;;;;;;;;;;;;;9.88;nan;98752.63;5090992;28;19929;-81
2021/10/22 04:29:17;;;;;;;;;;;;;;;9.79;nan;98747.59;5109885;28;19924;-83
2021/10/22 04:31:44;;;;;;;;;;;;;;;9.86;nan;98758.63;5085827;28;20371;-83
2021/10/22 04:34:11;;;;;;;;;;;;;;;9.95;nan;98767.22;5109865;28;19924;-83
2021/10/22 04:36:39;;;;;;;;;;;;;;;10.14;nan;98768.50;5088266;28;20371;-83
2021/10/22 04:41:53;;;;;;;;;;;;;;;9.80;nan;98759.56;5086479;28;20296;-83
2021/10/22 04:44:20;;;;;;;;;;;;;;;9.80;nan;98760.31;5079659;28;19924;-82
2021/10/22 04:46:48;;;;;;;;;;;;;;;9.84;nan;98751.91;5113850;28;19931;-82
2021/10/22 04:49:16;;;;;;;;;;;;;;;9.97;nan;98748.06;5076829;28;19969;-83
2021/10/22 04:51:43;;;;;;;;;;;;;;;10.05;nan;98749.50;5072129;28;19924;-83
2021/10/22 04:54:10;;;;;;;;;;;;;;;10.00;nan;98746.41;5094786;28;20341;-83
2021/10/22 04:56:37;;;;;;;;;;;;;;;10.13;nan;98766.94;5063668;28;20374;-83
2021/10/22 04:59:04;;;;;;;;;;;;;;;10.19;nan;98765.25;5113389;28;19924;-83
2021/10/22 05:01:32;;;;;;;;;;;;;;;10.13;nan;98764.16;5111254;28;19930;-83
2021/10/22 05:03:59;;;;;;;;;;;;;;;10.15;nan;98750.53;5085663;28;19925;-83
2021/10/22 05:06:27;;;;;;;;;;;;;;;10.24;nan;98747.97;5073777;28;19977;-83
2021/10/22 05:08:54;;;;;;;;;;;;;;;10.18;nan;98742.09;5081944;28;19924;-83
2021/10/22 05:11:22;;;;;;;;;;;;;;;10.31;nan;98756.22;5047994;28;19925;-82
2021/10/22 05:13:50;;;;;;;;;;;;;;;10.22;nan;98747.63;5085520;28;19924;-82
2021/10/22 05:16:17;;;;;;;;;;;;;;;10.28;nan;98751.50;5063766;28;19924;-83
2021/10/22 05:18:45;;;;;;;;;;;;;;;10.27;nan;98773.03;5083095;28;20301;-82
2021/10/22 05:21:12;;;;;;;;;;;;;;;9.93;nan;98749.34;5095238;28;19949;-83
2021/10/22 05:23:40;;;;;;;;;;;;;;;10.30;nan;98765.81;5084462;28;20409;-83
2021/10/22 05:26:07;;;;;;;;;;;;;;;10.48;nan;98760.66;5068798;28;19924;-83
2021/10/22 05:28:34;;;;;;;;;;;;;;;10.29;nan;98770.63;5069012;28;19928;-83
2021/10/22 05:31:02;;;;;;;;;;;;;;;10.08;nan;98764.63;5087866;28;19925;-82
2021/10/22 05:33:29;;;;;;;;;;;;;;;10.10;nan;98776.19;5056826;28;19925;-82
2021/10/22 05:35:56;;;;;;;;;;;;;;;10.51;nan;98779.38;5082022;28;19927;-82
2021/10/22 05:38:24;;;;;;;;;;;;;;;10.60;nan;98783.13;5085076;28;19930;-82
2021/10/22 05:40:52;;;;;;;;;;;;;;;10.37;nan;98774.84;5094513;28;19924;-83
2021/10/22 05:43:19;;;;;;;;;;;;;;;10.29;nan;98786.56;5059715;28;19930;-82
2021/10/22 05:45:47;;;;;;;;;;;;;;;10.27;nan;98772.28;5079269;28;19932;-83
2021/10/22 05:48:14;;;;;;;;;;;;;;;10.22;nan;98764.38;5097936;28;19924;-83
2021/10/22 05:50:42;;;;;;;;;;;;;;;10.44;nan;98782.28;5073862;28;19930;-83
2021/10/22 05:53:09;;;;;;;;;;;;;;;10.33;nan;98790.88;5059972;28;19927;-82
2021/10/22 05:55:36;;;;;;;;;;;;;;;10.21;nan;98780.34;5074713;28;19980;-80
2021/10/22 05:58:05;;;;;;;;;;;;;;;10.26;nan;98793.00;5079958;28;19930;-83
2021/10/22 06:00:33;;;;;;;;;;;;;;;10.04;nan;98800.19;5098353;28;19924;-81
2021/10/22 06:03:00;;;;;;;;;;;;;;;10.16;nan;98811.53;5075071;28;19924;-78
2021/10/22 06:05:27;;;;;;;;;;;;;;;10.00;nan;98810.59;5087689;28;19924;-79
2021/10/22 06:07:55;;;;;;;;;;;;;;;10.22;nan;98823.00;5068167;28;19928;-80
2021/10/22 06:10:23;;;;;;;;;;;;;;;10.31;nan;98818.47;5075525;28;19931;-81
2021/10/22 06:12:50;;;;;;;;;;;;;;;10.47;nan;98815.75;5071445;28;19924;-81
2021/10/22 06:15:17;;;;;;;;;;;;;;;10.39;nan;98814.28;5084248;28;19932;-81
2021/10/22 06:17:44;;;;;;;;;;;;;;;10.36;nan;98814.38;5103931;28;19929;-81
2021/10/22 06:20:25;;;;;;;;;;;;;;;10.51;nan;98832.44;5103348;28;19931;-81
2021/10/22 06:25:39;;;;;;;;;;;;;;;10.31;nan;98828.81;5076654;28;20325;-81
2021/10/22 06:28:06;;;;;;;;;;;;;;;10.29;nan;98828.47;5092163;28;19939;-81
2021/10/22 06:30:34;;;;;;;;;;;;;;;10.00;nan;98847.69;5084466;28;19924;-81
2021/10/22 06:33:01;;;;;;;;;;;;;;;10.40;nan;98865.38;5093475;28;20334;-81
2021/10/22 06:35:29;;;;;;;;;;;;;;;10.39;nan;98852.63;5095234;28;20375;-81
2021/10/22 06:37:56;;;;;;;;;;;;;;;10.46;nan;98874.81;5082837;28;19977;-81
2021/10/22 06:40:23;;;;;;;;;;;;;;;10.14;nan;98877.41;5090460;28;19925;-78
2021/10/22 06:42:52;;;;;;;;;;;;;;;10.31;nan;98879.91;5082475;28;19924;-81
2021/10/22 06:45:19;;;;;;;;;;;;;;;10.61;nan;98851.78;5081528;28;20002;-78
2021/10/22 06:47:47;;;;;;;;;;;;;;;10.62;nan;98883.28;5088349;28;19924;-78
2021/10/22 06:50:16;;;;;;;;;;;;;;;10.44;nan;98871.66;5063402;28;19924;-78
2021/10/22 06:52:43;;;;;;;;;;;;;;;10.38;nan;98874.16;5089581;28;19928;-78
2021/10/22 06:55:10;;;;;;;;;;;;;;;10.77;nan;98876.22;5091966;28;19924;-79
2021/10/22 06:57:41;;;;;;;;;;;;;;;10.74;nan;98877.06;5090176;28;19928;-78
2021/10/22 07:00:08;;;;;;;;;;;;;;;10.99;nan;98896.94;5086605;28;19938;-80
2021/10/22 07:02:45;;;;;;;;;;;;;;;11.05;nan;98898.03;5092227;28;19935;-80
2021/10/22 07:05:33;;;;;;;;;;;;;;;10.86;nan;98907.97;5074249;28;19931;-78
2021/10/22 07:08:01;;;;;;;;;;;;;;;10.62;nan;98900.06;5086649;28;20356;-78
2021/10/22 07:10:29;;;;;;;;;;;;;;;10.65;nan;98921.56;5080459;28;20367;-78
2021/10/22 07:12:57;;;;;;;;;;;;;;;10.63;nan;98924.00;5083809;28;20371;-78
2021/10/22 07:15:26;;;;;;;;;;;;;;;10.76;nan;98927.75;5091751;28;19932;-78
2021/10/22 07:17:56;;;;;;;;;;;;;;;10.85;nan;98925.16;5072927;28;20375;-78
2021/10/22 07:20:23;;;;;;;;;;;;;;;10.59;nan;98923.25;5095530;28;20393;-78
2021/10/22 07:22:55;;;;;;;;;;;;;;;10.86;nan;98935.91;5095805;28;19932;-78
2021/10/22 07:25:23;;;;;;;;;;;;;;;10.61;nan;98932.00;5095633;28;19931;-77
2021/10/22 07:27:51;;;;;;;;;;;;;;;10.69;nan;98934.25;5095862;28;19924;-77
2021/10/22 07:30:19;;;;;;;;;;;;;;;10.90;nan;98921.88;5095567;28;19924;-79
2021/10/22 07:32:47;;;;;;;;;;;;;;;10.75;nan;98909.41;5095795;28;20291;-80
2021/10/22 07:35:15;;;;;;;;;;;;;;;10.91;nan;98934.63;5095125;28;19924;-80
2021/10/22 07:37:43;;;;;;;;;;;;;;;10.76;nan;98942.50;5095788;28;20401;-80
2021/10/22 07:40:10;;;;;;;;;;;;;;;10.48;nan;98945.03;5077683;28;19924;-80
2021/10/22 07:42:37;;;;;;;;;;;;;;;10.67;nan;98969.44;5075327;28;19934;-80
2021/10/22 07:45:05;;;;;;;;;;;;;;;10.86;nan;98982.63;5073708;28;19929;-80
2021/10/22 07:47:33;;;;;;;;;;;;;;;10.73;nan;98973.31;5075428;28;19932;-80
2021/10/22 07:50:02;;;;;;;;;;;;;;;11.04;nan;98980.31;5095388;28;19928;-80
2021/10/22 07:52:30;;;;;;;;;;;;;;;10.77;nan;98990.78;5076598;28;19984;-80
2021/10/22 07:58:16;;;;;;;;;;;;;;;10.80;nan;98989.94;5089656;28;19988;-80
2021/10/22 08:00:44;;;;;;;;;;;;;;;10.72;nan;98988.50;5094872;28;20322;-80
2021/10/22 08:03:11;;;;;;;;;;;;;;;10.66;nan;98981.81;5094505;28;19977;-80
2021/10/22 08:05:39;;;;;;;;;;;;;;;10.67;nan;98988.97;5057099;28;20389;-80
2021/10/22 08:08:08;;;;;;;;;;;;;;;10.79;nan;98991.16;5053903;28;19953;-81
2021/10/22 08:10:38;;;;;;;;;;;;;;;10.98;nan;99018.34;5077126;28;19934;-81
2021/10/22 08:13:10;;;;;;;;;;;;;;;11.21;nan;99011.97;5095187;28;19924;-84
2021/10/22 08:15:41;;;;;;;;;;;;;;;10.92;nan;99014.47;5057105;28;19935;-80
2021/10/22 08:18:09;;;;;;;;;;;;;;;11.06;nan;98991.09;5076100;28;19924;-79
2021/10/22 08:20:48;;;;;;;;;;;;;;;10.77;nan;99019.53;5076107;28;19946;-80
2021/10/22 08:23:16;;;;;;;;;;;;;;;11.12;nan;98992.94;5076369;28;19950;-86
2021/10/22 08:25:44;;;;;;;;;;;;;;;11.33;nan;99042.88;5075868;28;20302;-84
2021/10/22 08:28:11;;;;;;;;;;;;;;;10.78;nan;99025.94;5059657;28;19928;-79
2021/10/22 08:30:39;;;;;;;;;;;;;;;11.26;nan;99040.22;5075789;28;20375;-79
2021/10/22 08:33:08;;;;;;;;;;;;;;;11.26;nan;99036.63;5093473;28;20405;-79
2021/10/22 08:35:35;;;;;;;;;;;;;;;11.43;nan;99022.28;5094092;28;20425;-79
2021/10/22 08:38:04;;;;;;;;;;;;;;;11.25;nan;99038.63;5094209;28;19924;-78
2021/10/22 08:40:31;;;;;;;;;;;;;;;11.61;nan;99050.72;5091038;28;20302;-79
2021/10/22 08:42:58;;;;;;;;;;;;;;;11.49;nan;99047.75;5075257;28;19928;-78
2021/10/22 08:45:25;;;;;;;;;;;;;;;11.44;nan;99049.03;5072681;28;19925;-78
2021/10/22 08:47:53;;;;;;;;;;;;;;;11.36;nan;99055.22;5074807;28;19930;-78
2021/10/22 08:50:21;;;;;;;;;;;;;;;11.54;nan;99039.63;5073963;28;19928;-78
2021/10/22 08:52:49;;;;;;;;;;;;;;;11.35;nan;99062.81;5093584;28;19924;-78
2021/10/22 08:55:18;;;;;;;;;;;;;;;11.35;nan;99068.41;5093219;28;19924;-79
2021/10/22 08:57:47;;;;;;;;;;;;;;;11.56;nan;99079.19;5074327;28;19932;-79
2021/10/22 09:00:16;;;;;;;;;;;;;;;11.23;nan;99063.44;5059966;28;19931;-79
2021/10/22 09:02:48;;;;;;;;;;;;;;;11.26;nan;99068.19;5092989;28;19977;-79
2021/10/22 09:05:26;;;;;;;;;;;;;;;11.73;nan;99069.69;5059212;28;20413;-79
2021/10/22 09:07:55;;;;;;;;;;;;;;;11.66;nan;99063.44;5092843;28;19929;-79
2021/10/22 09:10:23;;;;;;;;;;;;;;;11.64;nan;99072.28;5092956;28;19924;-79
2021/10/22 09:12:52;;;;;;;;;;;;;;;11.73;nan;99086.47;5073854;28;20200;-79
2021/10/22 09:15:26;;;;;;;;;;;;;;;11.43;nan;99078.25;5093298;28;19928;-79
2021/10/22 09:17:58;;;;;;;;;;;;;;;11.82;nan;99078.28;5091912;28;20406;-79
2021/10/22 09:20:26;;;;;;;;;;;;;;;12.24;nan;99084.97;5093415;28;20421;-79
2021/10/22 09:22:53;;;;;;;;;;;;;;;11.57;nan;99093.97;5079871;28;20425;-80
2021/10/22 09:25:22;;;;;;;;;;;;;;;11.60;nan;99093.88;5093559;28;19930;-79
2021/10/22 09:27:57;;;;;;;;;;;;;;;11.74;nan;99092.88;5093486;28;19931;-79
2021/10/22 09:30:24;;;;;;;;;;;;;;;11.73;nan;99089.28;5083766;28;20327;-79
2021/10/22 09:32:51;;;;;;;;;;;;;;;11.61;nan;99098.28;5081437;28;19928;-79
2021/10/22 09:35:33;;;;;;;;;;;;;;;12.01;nan;99104.72;5091068;28;19928;-79
2021/10/22 09:38:10;;;;;;;;;;;;;;;11.95;nan;99107.19;5081537;28;19924;-80
2021/10/22 09:40:39;;;;;;;;;;;;;;;12.09;nan;99112.50;5093389;28;19928;-79
2021/10/22 09:43:15;;;;;;;;;;;;;;;11.89;nan;99125.72;5081291;28;19927;-79
2021/10/22 09:45:44;;;;;;;;;;;;;;;11.72;nan;99117.69;5051673;28;19928;-79
2021/10/22 09:48:26;;;;;;;;;;;;;;;12.22;nan;99118.25;5088681;28;19924;-79
2021/10/22 09:50:54;;;;;;;;;;;;;;;12.44;nan;99131.34;5067066;28;19924;-79
2021/10/22 09:53:41;;;;;;;;;;;;;;;12.47;nan;99124.88;5092497;28;19924;-80
2021/10/22 10:00:00;;;;;;;;;;;;;;;12.06;nan;99151.78;5046337;28;19940;-80
2021/10/22 10:02:30;;;;;;;;;;;;;;;11.54;nan;99134.78;5057904;28;19924;-78
2021/10/22 10:04:57;;;;;;;;;;;;;;;11.86;nan;99163.00;5069449;28;19947;-80
2021/10/22 10:07:25;;;;;;;;;;;;;;;12.16;nan;99162.78;5072627;28;19924;-80
2021/10/22 10:09:54;;;;;;;;;;;;;;;12.00;nan;99157.13;5063918;28;20414;-79
2021/10/22 10:12:21;;;;;;;;;;;;;;;12.07;nan;99156.97;5052123;28;19931;-80
2021/10/22 10:14:49;;;;;;;;;;;;;;;11.87;nan;99141.38;5071717;28;19932;-79
2021/10/22 10:17:16;;;;;;;;;;;;;;;12.04;nan;99152.22;5066268;28;19938;-80
2021/10/22 10:19:45;;;;;;;;;;;;;;;12.14;nan;99154.03;5064822;28;19929;-80
2021/10/22 10:22:13;;;;;;;;;;;;;;;12.33;nan;99158.81;5062731;28;19924;-79
2021/10/22 10:24:47;;;;;;;;;;;;;;;12.44;nan;99167.00;5061937;28;20333;-79
2021/10/22 10:27:17;;;;;;;;;;;;;;;12.25;nan;99151.00;5061764;28;19930;-79
2021/10/22 10:29:46;;;;;;;;;;;;;;;12.63;nan;99175.34;5062165;28;20281;-79
2021/10/22 10:32:17;;;;;;;;;;;;;;;12.22;nan;99180.66;5071463;28;20372;-80
2021/10/22 10:34:44;;;;;;;;;;;;;;;12.68;nan;99197.28;5059030;28;19924;-79
2021/10/22 10:37:38;;;;;;;;;;;;;;;12.84;nan;99193.72;5056972;28;20292;-80
2021/10/22 10:40:06;;;;;;;;;;;;;;;12.46;nan;99196.16;5067637;28;19936;-79
2021/10/22 10:42:37;;;;;;;;;;;;;;;12.53;nan;99200.81;5065753;28;20480;-79
2021/10/22 10:45:09;;;;;;;;;;;;;;;12.71;nan;99195.59;5070327;28;20311;-79
2021/10/22 10:47:37;;;;;;;;;;;;;;;13.00;nan;99187.34;5063294;28;19925;-79
2021/10/22 10:50:06;;;;;;;;;;;;;;;12.98;nan;99206.63;5058554;28;20260;-79
2021/10/22 10:52:37;;;;;;;;;;;;;;;13.05;nan;99200.88;5074110;28;20304;-80
2021/10/22 10:55:18;;;;;;;;;;;;;;;13.00;nan;99205.00;5078379;28;19935;-79
2021/10/22 10:57:49;;;;;;;;;;;;;;;13.33;nan;99195.34;5062125;28;19932;-80
2021/10/22 11:00:17;;;;;;;;;;;;;;;12.98;nan;99187.00;5080041;28;19977;-80
2021/10/22 11:03:03;;;;;;;;;;;;;;;13.14;nan;99207.47;5060627;28;19924;-80
2021/10/22 11:05:43;;;;;;;;;;;;;;;13.33;nan;99208.63;5047517;28;19925;-80
2021/10/22 11:08:15;;;;;;;;;;;;;;;12.77;nan;99247.94;5078013;28;19928;-80
2021/10/22 11:11:03;;;;;;;;;;;;;;;12.21;nan;99232.31;5057110;28;19932;-80
2021/10/22 11:13:50;;;;;;;;;;;;;;;11.64;nan;99262.59;5056527;28;19978;-80
2021/10/22 11:16:24;;;;;;;;;;;;;;;11.70;nan;99265.69;5056186;28;19928;-80
2021/10/22 11:18:52;;;;;;;;;;;;;;;11.83;nan;99259.03;5060236;28;19924;-80
2021/10/22 11:21:23;;;;;;;;;;;;;;;11.88;nan;99266.94;5071329;28;19928;-80
2021/10/22 11:23:51;;;;;;;;;;;;;;;12.45;nan;99277.84;5040472;28;19925;-80
2021/10/22 11:26:19;;;;;;;;;;;;;;;12.16;nan;99288.81;5068190;28;19924;-80
2021/10/22 11:28:47;;;;;;;;;;;;;;;11.94;nan;99278.44;5078408;28;19928;-80
2021/10/22 11:31:15;;;;;;;;;;;;;;;11.96;nan;99282.41;5071643;28;19932;-80
2021/10/22 11:33:43;;;;;;;;;;;;;;;11.94;nan;99296.03;5072734;28;19924;-80
2021/10/22 11:36:14;;;;;;;;;;;;;;;12.19;nan;99298.41;5043608;28;20380;-80
2021/10/22 11:38:42;;;;;;;;;;;;;;;12.19;nan;99299.16;5056887;28;20318;-80
2021/10/22 11:41:13;;;;;;;;;;;;;;;12.71;nan;99297.34;5064719;28;19932;-80
2021/10/22 11:44:01;;;;;;;;;;;;;;;12.25;nan;99288.28;5061131;28;19925;-80
2021/10/22 11:46:46;;;;;;;;;;;;;;;12.27;nan;99306.22;5075899;28;19939;-80
2021/10/22 11:49:23;;;;;;;;;;;;;;;11.87;nan;99315.78;5073071;28;19924;-79
2021/10/22 11:51:52;;;;;;;;;;;;;;;12.21;nan;99326.75;5089886;28;19930;-79
2021/10/22 11:54:19;;;;;;;;;;;;;;;12.16;nan;99328.03;5087301;28;19978;-80
2021/10/22 11:56:47;;;;;;;;;;;;;;;11.90;nan;99326.13;5077461;28;19924;-80
2021/10/22 11:59:15;;;;;;;;;;;;;;;11.68;nan;99310.09;5074792;28;19924;-80
2021/10/22 12:01:46;;;;;;;;;;;;;;;11.63;nan;99311.34;5066114;28;20443;-79
2021/10/22 12:04:24;;;;;;;;;;;;;;;11.79;nan;99300.31;5040810;28;19928;-78
2021/10/22 12:07:08;;;;;;;;;;;;;;;11.80;nan;99327.06;5090955;28;19944;-80
2021/10/22 12:09:36;;;;;;;;;;;;;;;11.79;nan;99325.50;5069252;28;19985;-77
2021/10/22 12:12:11;;;;;;;;;;;;;;;11.95;nan;99322.81;5094543;28;20397;-79
2021/10/22 12:14:40;;;;;;;;;;;;;;;11.79;nan;99330.31;5094991;28;19928;-78
2021/10/22 12:17:10;;;;;;;;;;;;;;;12.05;nan;99337.84;5092678;28;19977;-79
2021/10/22 12:19:39;;;;;;;;;;;;;;;12.18;nan;99336.00;5074221;28;19933;-79
2021/10/22 12:22:06;;;;;;;;;;;;;;;12.56;nan;99340.91;5074069;28;19926;-79
2021/10/22 12:24:37;;;;;;;;;;;;;;;12.46;nan;99341.88;5056217;28;20290;-78
2021/10/22 12:27:06;;;;;;;;;;;;;;;12.64;nan;99336.75;5072889;28;19924;-79
2021/10/22 12:29:53;;;;;;;;;;;;;;;12.58;nan;99327.25;5082083;28;19930;-79
2021/10/22 12:32:34;;;;;;;;;;;;;;;12.33;nan;99337.34;5083517;28;20380;-78
2021/10/22 12:35:02;;;;;;;;;;;;;;;12.38;nan;99345.25;5073162;28;19931;-78
2021/10/22 12:37:56;;;;;;;;;;;;;;;12.18;nan;99358.41;5074743;28;20422;-79
2021/10/22 12:40:27;;;;;;;;;;;;;;;12.12;nan;99365.72;5080485;28;19924;-80
2021/10/22 12:43:12;;;;;;;;;;;;;;;11.73;nan;99358.00;5074517;28;20298;-79
2021/10/22 12:45:45;;;;;;;;;;;;;;;11.92;nan;99360.06;5079680;28;19931;-79
2021/10/22 12:48:14;;;;;;;;;;;;;;;12.12;nan;99371.34;5080580;28;19924;-80
2021/10/22 12:50:41;;;;;;;;;;;;;;;12.20;nan;99368.00;5073602;28;20356;-80
2021/10/22 12:53:12;;;;;;;;;;;;;;;11.99;nan;99379.56;5075528;28;19935;-81
2021/10/22 12:55:43;;;;;;;;;;;;;;;12.09;nan;99369.38;5043315;28;19929;-80
2021/10/22 12:58:11;;;;;;;;;;;;;;;12.09;nan;99358.97;5074872;28;20417;-79
2021/10/22 13:00:39;;;;;;;;;;;;;;;11.73;nan;99360.78;5072770;28;19924;-79
2021/10/22 13:03:07;;;;;;;;;;;;;;;12.19;nan;99366.41;5072682;28;20023;-79
2021/10/22 13:05:38;;;;;;;;;;;;;;;12.38;nan;99367.66;5071871;28;20291;-79
2021/10/22 13:10:58;;;;;;;;;;;;;;;12.34;nan;99376.13;5087366;28;19924;-79
2021/10/22 13:21:31;;;;;;;;;;;;;;;12.16;nan;99384.06;5081220;28;20371;-79
2021/10/22 13:23:58;;;;;;;;;;;;;;;11.83;nan;99382.22;5038675;28;20418;-79
2021/10/22 13:26:25;;;;;;;;;;;;;;;12.02;nan;99389.13;5059185;28;20401;-80
2021/10/22 13:28:54;;;;;;;;;;;;;;;11.77;nan;99355.91;5075803;28;19924;-79
2021/10/22 13:31:21;;;;;;;;;;;;;;;11.45;nan;99377.19;5082691;28;19935;-79
2021/10/22 13:33:48;;;;;;;;;;;;;;;11.73;nan;99400.00;5072843;28;20409;-80
2021/10/22 13:36:16;;;;;;;;;;;;;;;11.93;nan;99403.69;5052888;28;19924;-80
2021/10/22 13:38:45;;;;;;;;;;;;;;;12.21;nan;99393.97;5072255;28;19958;-80
2021/10/22 13:41:17;;;;;;;;;;;;;;;12.33;nan;99410.97;5072081;28;19924;-79
2021/10/22 13:43:47;;;;;;;;;;;;;;;11.76;nan;99403.94;5054827;28;19924;-79
2021/10/22 13:46:15;;;;;;;;;;;;;;;11.62;nan;99409.72;5052487;28;20364;-79
2021/10/22 13:48:42;;;;;;;;;;;;;;;11.85;nan;99407.78;5053356;28;19928;-79
2021/10/22 13:51:10;;;;;;;;;;;;;;;12.08;nan;99410.63;5081240;28;19928;-80